createdAt,value
2023-01-29T00:00:19.267Z,86.26
2023-01-29T00:01:22.653Z,86.29
2023-01-29T00:02:26.399Z,86.31
2023-01-29T00:04:02.504Z,86.24
2023-01-29T00:05:27.396Z,86.21
2023-01-29T00:06:31.937Z,86.21
2023-01-29T00:08:07.176Z,86.09
2023-01-29T00:09:10.486Z,86.05
2023-01-29T00:10:13.812Z,85.99
2023-01-29T00:11:49.208Z,85.96
2023-01-29T00:12:52.448Z,86.04
2023-01-29T00:13:56.806Z,86.02
2023-01-29T00:15:32.450Z,86.06
2023-01-29T00:16:36.018Z,86.08
2023-01-29T00:17:39.819Z,86.13
2023-01-29T00:19:15.359Z,86.16
2023-01-29T00:20:19.010Z,86.32
2023-01-29T00:21:22.829Z,86.39
2023-01-29T00:22:58.032Z,86.50
2023-01-29T00:24:01.423Z,86.60
2023-01-29T00:25:04.845Z,86.58
2023-01-29T00:26:40.545Z,86.61
2023-01-29T00:27:43.839Z,86.90
2023-01-29T00:28:47.292Z,86.77
2023-01-29T00:30:23.379Z,86.84
2023-01-29T00:31:27.015Z,86.90
2023-01-29T00:32:31.432Z,86.95
2023-01-29T00:34:07.018Z,86.95
2023-01-29T00:35:10.291Z,86.94
2023-01-29T00:36:13.595Z,87.00
2023-01-29T00:37:48.636Z,86.96
2023-01-29T00:38:52.021Z,86.89
2023-01-29T00:39:55.698Z,86.94
2023-01-29T00:41:31.252Z,86.91
2023-01-29T00:42:34.941Z,86.93
2023-01-29T00:43:38.097Z,86.88
2023-01-29T00:45:13.747Z,86.72
2023-01-29T00:46:17.479Z,86.85
2023-01-29T00:47:20.992Z,86.81
2023-01-29T00:48:56.291Z,86.83
2023-01-29T00:49:59.599Z,86.88
2023-01-29T00:51:03.565Z,86.77
2023-01-29T00:52:38.845Z,86.74
2023-01-29T00:53:42.215Z,86.79
2023-01-29T00:54:45.668Z,86.73
2023-01-29T00:56:21.371Z,86.64
2023-01-29T00:57:24.883Z,86.69
2023-01-29T00:58:28.342Z,86.72
2023-01-29T01:00:18.535Z,86.71
2023-01-29T01:01:22.392Z,86.68
2023-01-29T01:02:26.055Z,86.78
2023-01-29T01:04:01.422Z,86.74
2023-01-29T01:05:04.697Z,86.72
2023-01-29T01:06:08.236Z,86.82
2023-01-29T01:07:43.848Z,86.85
2023-01-29T01:08:47.238Z,86.75
2023-01-29T01:09:50.673Z,86.88
2023-01-29T01:11:26.977Z,86.90
2023-01-29T01:12:30.495Z,86.90
2023-01-29T01:13:33.838Z,86.92
2023-01-29T01:15:09.390Z,86.93
2023-01-29T01:16:12.788Z,86.96
2023-01-29T01:17:16.535Z,86.88
2023-01-29T01:18:52.241Z,86.98
2023-01-29T01:19:56.494Z,87.01
2023-01-29T01:21:00.330Z,87.07
2023-01-29T01:22:35.653Z,87.12
2023-01-29T01:23:39.160Z,87.10
2023-01-29T01:24:42.745Z,87.10
2023-01-29T01:26:18.125Z,87.10
2023-01-29T01:27:21.598Z,87.12
2023-01-29T01:28:25.089Z,87.11
2023-01-29T01:30:00.695Z,87.16
2023-01-29T01:31:04.629Z,87.12
2023-01-29T01:32:08.795Z,87.16
2023-01-29T01:33:43.852Z,87.17
2023-01-29T01:34:47.232Z,87.14
2023-01-29T01:35:50.791Z,87.09
2023-01-29T01:37:26.091Z,87.12
2023-01-29T01:38:29.534Z,87.15
2023-01-29T01:39:32.950Z,87.15
2023-01-29T01:41:08.694Z,87.20
2023-01-29T01:42:12.183Z,87.16
2023-01-29T01:43:15.294Z,87.14
2023-01-29T01:44:51.075Z,87.14
2023-01-29T01:45:54.451Z,87.13
2023-01-29T01:46:58.291Z,87.12
2023-01-29T01:48:33.938Z,87.13
2023-01-29T01:49:36.984Z,87.15
2023-01-29T01:50:40.159Z,87.10
2023-01-29T01:52:15.537Z,87.05
2023-01-29T01:53:18.996Z,87.06
2023-01-29T01:54:22.255Z,87.05
2023-01-29T01:55:57.803Z,87.08
2023-01-29T01:57:01.351Z,87.11
2023-01-29T01:58:04.828Z,87.13
2023-01-29T01:59:40.386Z,87.17
2023-01-29T02:00:18.100Z,87.16
2023-01-29T02:01:23.778Z,87.19
2023-01-29T02:02:29.326Z,87.26
2023-01-29T02:04:04.957Z,87.34
2023-01-29T02:05:08.393Z,87.41
2023-01-29T02:06:11.994Z,87.38
2023-01-29T02:07:47.345Z,87.22
2023-01-29T02:08:50.506Z,87.23
2023-01-29T02:09:53.953Z,87.45
2023-01-29T02:11:30.072Z,87.38
2023-01-29T02:12:33.515Z,87.31
2023-01-29T02:13:36.895Z,87.24
2023-01-29T02:15:12.375Z,87.14
2023-01-29T02:16:15.575Z,87.18
2023-01-29T02:17:19.296Z,87.23
2023-01-29T02:18:54.938Z,87.16
2023-01-29T02:19:58.344Z,87.09
2023-01-29T02:21:02.155Z,86.97
2023-01-29T02:22:37.614Z,86.89
2023-01-29T02:23:44.111Z,86.81
2023-01-29T02:24:48.142Z,86.80
2023-01-29T02:26:23.742Z,86.85
2023-01-29T02:27:27.034Z,86.82
2023-01-29T02:28:30.282Z,86.79
2023-01-29T02:30:05.752Z,86.74
2023-01-29T02:31:09.679Z,86.76
2023-01-29T02:32:13.638Z,86.67
2023-01-29T02:33:49.120Z,86.77
2023-01-29T02:34:52.377Z,86.89
2023-01-29T02:35:55.917Z,86.92
2023-01-29T02:37:31.355Z,86.80
2023-01-29T02:38:34.737Z,86.64
2023-01-29T02:39:38.191Z,86.57
2023-01-29T02:41:13.947Z,86.62
2023-01-29T02:42:17.420Z,86.53
2023-01-29T02:43:20.878Z,86.38
2023-01-29T02:44:56.366Z,86.64
2023-01-29T02:45:59.791Z,86.57
2023-01-29T02:47:03.738Z,86.47
2023-01-29T02:48:39.385Z,86.30
2023-01-29T02:49:42.815Z,86.38
2023-01-29T02:50:46.134Z,86.34
2023-01-29T02:52:21.952Z,86.22
2023-01-29T02:53:25.338Z,86.17
2023-01-29T02:54:28.694Z,86.04
2023-01-29T02:56:04.339Z,86.00
2023-01-29T02:57:07.610Z,85.89
2023-01-29T02:58:11.120Z,85.89
2023-01-29T02:59:46.515Z,85.98
2023-01-29T03:00:17.935Z,85.94
2023-01-29T03:01:21.607Z,86.01
2023-01-29T03:02:25.069Z,86.08
2023-01-29T03:04:00.681Z,86.27
2023-01-29T03:05:04.113Z,86.26
2023-01-29T03:06:07.287Z,86.20
2023-01-29T03:07:42.905Z,86.26
2023-01-29T03:08:46.595Z,86.14
2023-01-29T03:09:49.917Z,86.16
2023-01-29T03:11:25.469Z,86.27
2023-01-29T03:12:29.267Z,86.27
2023-01-29T03:13:32.640Z,86.08
2023-01-29T03:15:08.346Z,86.16
2023-01-29T03:16:11.893Z,86.21
2023-01-29T03:17:15.592Z,86.26
2023-01-29T03:18:50.971Z,86.29
2023-01-29T03:19:54.278Z,86.28
2023-01-29T03:20:58.463Z,86.34
2023-01-29T03:22:34.119Z,86.43
2023-01-29T03:23:37.391Z,86.41
2023-01-29T03:24:40.941Z,86.51
2023-01-29T03:26:16.724Z,86.50
2023-01-29T03:27:20.093Z,86.53
2023-01-29T03:28:23.492Z,86.58
2023-01-29T03:29:58.905Z,86.57
2023-01-29T03:31:03.015Z,86.67
2023-01-29T03:32:07.020Z,86.68
2023-01-29T03:33:42.817Z,86.54
2023-01-29T03:34:46.114Z,86.55
2023-01-29T03:35:49.665Z,86.51
2023-01-29T03:37:25.397Z,86.55
2023-01-29T03:38:28.774Z,86.55
2023-01-29T03:39:31.982Z,86.59
2023-01-29T03:41:07.999Z,86.61
2023-01-29T03:42:11.288Z,86.64
2023-01-29T03:43:14.723Z,86.68
2023-01-29T03:44:50.098Z,86.64
2023-01-29T03:45:53.438Z,86.63
2023-01-29T03:46:57.036Z,86.64
2023-01-29T03:48:32.664Z,86.72
2023-01-29T03:49:35.868Z,86.68
2023-01-29T03:50:39.329Z,86.73
2023-01-29T03:52:14.609Z,86.75
2023-01-29T03:53:18.159Z,86.70
2023-01-29T03:54:21.595Z,86.81
2023-01-29T03:55:57.239Z,86.84
2023-01-29T03:57:00.420Z,86.84
2023-01-29T03:58:03.834Z,86.90
2023-01-29T03:59:39.360Z,86.88
2023-01-29T04:00:18.601Z,86.88
2023-01-29T04:01:22.146Z,86.91
2023-01-29T04:02:26.082Z,86.96
2023-01-29T04:04:01.395Z,86.91
2023-01-29T04:05:05.059Z,86.96
2023-01-29T04:06:08.335Z,87.03
2023-01-29T04:07:43.871Z,87.02
2023-01-29T04:08:47.056Z,87.03
2023-01-29T04:09:50.240Z,87.05
2023-01-29T04:11:25.794Z,87.08
2023-01-29T04:12:29.349Z,87.08
2023-01-29T04:13:32.601Z,87.06
2023-01-29T04:15:07.974Z,87.05
2023-01-29T04:16:11.083Z,87.05
2023-01-29T04:17:14.861Z,87.05
2023-01-29T04:18:50.211Z,87.20
2023-01-29T04:19:53.663Z,87.21
2023-01-29T04:20:57.716Z,87.20
2023-01-29T04:22:33.248Z,87.24
2023-01-29T04:23:36.432Z,87.19
2023-01-29T04:24:39.989Z,87.13
2023-01-29T04:26:15.392Z,87.13
2023-01-29T04:27:18.490Z,87.05
2023-01-29T04:28:21.783Z,87.08
2023-01-29T04:29:57.123Z,87.03
2023-01-29T04:31:01.011Z,86.99
2023-01-29T04:32:05.427Z,87.12
2023-01-29T04:33:40.944Z,87.01
2023-01-29T04:34:44.149Z,87.03
2023-01-29T04:35:47.836Z,86.97
2023-01-29T04:37:23.342Z,87.01
2023-01-29T04:38:26.497Z,87.04
2023-01-29T04:39:29.835Z,87.06
2023-01-29T04:41:05.736Z,87.04
2023-01-29T04:42:09.074Z,87.10
2023-01-29T04:43:12.408Z,87.14
2023-01-29T04:44:47.928Z,87.10
2023-01-29T04:45:51.080Z,87.12
2023-01-29T04:46:54.400Z,87.14
2023-01-29T04:48:30.245Z,87.09
2023-01-29T04:49:33.526Z,87.09
2023-01-29T04:50:36.671Z,87.20
2023-01-29T04:52:11.932Z,87.23
2023-01-29T04:53:15.277Z,86.99
2023-01-29T04:54:18.445Z,87.09
2023-01-29T04:55:54.016Z,87.06
2023-01-29T04:56:57.359Z,86.94
2023-01-29T04:58:00.544Z,86.79
2023-01-29T04:59:36.262Z,87.02
2023-01-29T05:00:18.449Z,87.02
2023-01-29T05:01:22.107Z,87.11
2023-01-29T05:02:25.995Z,87.03
2023-01-29T05:04:01.817Z,87.06
2023-01-29T05:05:47.037Z,87.07
2023-01-29T05:06:50.532Z,87.18
2023-01-29T05:07:54.023Z,87.07
2023-01-29T05:09:29.665Z,86.98
2023-01-29T05:10:33.288Z,87.03
2023-01-29T05:11:36.810Z,87.05
2023-01-29T05:13:12.562Z,86.96
2023-01-29T05:14:15.783Z,87.02
2023-01-29T05:15:19.456Z,86.93
2023-01-29T05:16:55.207Z,86.89
2023-01-29T05:17:58.502Z,86.86
2023-01-29T05:19:01.952Z,86.90
2023-01-29T05:20:37.373Z,86.96
2023-01-29T05:21:41.249Z,86.93
2023-01-29T05:22:44.709Z,86.93
2023-01-29T05:24:20.220Z,86.93
2023-01-29T05:25:23.901Z,86.84
2023-01-29T05:26:27.307Z,86.75
2023-01-29T05:28:02.858Z,86.73
2023-01-29T05:29:06.208Z,86.71
2023-01-29T05:30:09.572Z,86.61
2023-01-29T05:31:46.091Z,86.62
2023-01-29T05:32:49.439Z,86.70
2023-01-29T05:33:52.924Z,86.69
2023-01-29T05:35:28.749Z,86.51
2023-01-29T05:36:32.352Z,86.44
2023-01-29T05:37:35.697Z,86.35
2023-01-29T05:39:11.230Z,86.13
2023-01-29T05:40:15.135Z,86.22
2023-01-29T05:41:18.322Z,86.39
2023-01-29T05:42:53.792Z,86.38
2023-01-29T05:43:57.102Z,86.27
2023-01-29T05:45:00.849Z,86.28
2023-01-29T05:46:36.447Z,86.24
2023-01-29T05:47:40.321Z,86.32
2023-01-29T05:48:43.512Z,86.11
2023-01-29T05:50:19.938Z,86.32
2023-01-29T05:51:23.524Z,86.32
2023-01-29T05:52:26.855Z,86.36
2023-01-29T05:54:02.191Z,86.43
2023-01-29T05:55:05.568Z,86.29
2023-01-29T05:56:08.746Z,86.32
2023-01-29T05:57:44.076Z,86.37
2023-01-29T05:58:47.580Z,86.26
2023-01-29T05:59:51.063Z,86.22
2023-01-29T06:00:18.221Z,86.22
2023-01-29T06:01:22.074Z,86.15
2023-01-29T06:02:25.773Z,86.13
2023-01-29T06:04:01.807Z,86.14
2023-01-29T06:05:05.298Z,86.29
2023-01-29T06:06:08.630Z,86.23
2023-01-29T06:07:44.207Z,86.19
2023-01-29T06:08:47.455Z,85.96
2023-01-29T06:09:50.663Z,85.98
2023-01-29T06:11:26.427Z,85.95
2023-01-29T06:12:29.929Z,85.83
2023-01-29T06:13:33.335Z,85.84
2023-01-29T06:15:08.738Z,85.77
2023-01-29T06:16:12.233Z,85.80
2023-01-29T06:17:16.573Z,85.66
2023-01-29T06:18:52.234Z,85.54
2023-01-29T06:19:55.640Z,85.50
2023-01-29T06:20:59.504Z,85.65
2023-01-29T06:22:38.363Z,85.48
2023-01-29T06:23:41.713Z,85.45
2023-01-29T06:24:45.178Z,85.35
2023-01-29T06:26:20.529Z,85.51
2023-01-29T06:27:23.860Z,85.40
2023-01-29T06:28:27.369Z,85.52
2023-01-29T06:30:02.615Z,85.61
2023-01-29T06:31:36.701Z,85.20
2023-01-29T06:32:42.725Z,85.24
2023-01-29T06:34:18.205Z,85.56
2023-01-29T06:35:21.607Z,85.65
2023-01-29T06:36:24.707Z,85.66
2023-01-29T06:38:00.376Z,85.56
2023-01-29T06:39:03.471Z,85.56
2023-01-29T06:40:06.690Z,85.33
2023-01-29T06:41:42.703Z,85.37
2023-01-29T06:42:46.208Z,85.30
2023-01-29T06:43:49.873Z,85.50
2023-01-29T06:45:25.585Z,85.41
2023-01-29T06:46:29.406Z,85.44
2023-01-29T06:47:32.667Z,85.33
2023-01-29T06:49:08.239Z,85.46
2023-01-29T06:50:11.612Z,85.35
2023-01-29T06:51:15.556Z,85.34
2023-01-29T06:52:51.008Z,85.38
2023-01-29T06:53:54.317Z,85.45
2023-01-29T06:54:57.856Z,85.18
2023-01-29T06:56:33.230Z,85.44
2023-01-29T06:57:36.798Z,85.55
2023-01-29T06:58:40.164Z,85.39
2023-01-29T07:00:18.860Z,85.24
2023-01-29T07:01:41.633Z,85.25
2023-01-29T07:02:45.501Z,85.10
2023-01-29T07:04:21.010Z,85.29
2023-01-29T07:05:24.354Z,85.40
2023-01-29T07:06:27.816Z,85.39
2023-01-29T07:08:03.562Z,85.21
2023-01-29T07:09:07.135Z,85.20
2023-01-29T07:10:10.395Z,85.25
2023-01-29T07:11:46.594Z,84.91
2023-01-29T07:12:50.049Z,84.90
2023-01-29T07:13:53.647Z,84.77
2023-01-29T07:15:28.982Z,84.93
2023-01-29T07:16:35.313Z,85.10
2023-01-29T07:17:38.676Z,85.18
2023-01-29T07:19:14.220Z,85.05
2023-01-29T07:20:17.583Z,85.15
2023-01-29T07:21:21.079Z,85.06
2023-01-29T07:22:56.369Z,85.10
2023-01-29T07:24:00.029Z,85.31
2023-01-29T07:25:03.738Z,85.19
2023-01-29T07:26:39.357Z,85.06
2023-01-29T07:27:42.562Z,84.98
2023-01-29T07:28:47.464Z,84.88
2023-01-29T07:30:23.307Z,84.90
2023-01-29T07:31:27.150Z,85.00
2023-01-29T07:32:31.360Z,85.02
2023-01-29T07:34:06.856Z,84.68
2023-01-29T07:35:10.098Z,84.76
2023-01-29T07:36:13.535Z,84.79
2023-01-29T07:37:48.864Z,84.85
2023-01-29T07:38:52.312Z,84.86
2023-01-29T07:39:55.788Z,84.95
2023-01-29T07:41:31.380Z,84.93
2023-01-29T07:42:34.921Z,84.84
2023-01-29T07:43:38.151Z,84.78
2023-01-29T07:45:13.584Z,84.99
2023-01-29T07:46:17.185Z,85.01
2023-01-29T07:47:22.880Z,84.98
2023-01-29T07:48:58.258Z,85.10
2023-01-29T07:50:01.629Z,84.62
2023-01-29T07:51:05.422Z,84.74
2023-01-29T07:52:40.677Z,84.88
2023-01-29T07:53:43.989Z,84.88
2023-01-29T07:54:47.360Z,84.97
2023-01-29T07:56:23.047Z,84.99
2023-01-29T07:57:26.351Z,84.98
2023-01-29T07:58:29.676Z,84.86
2023-01-29T08:00:18.590Z,84.89
2023-01-29T08:01:22.290Z,84.93
2023-01-29T08:02:25.638Z,84.86
2023-01-29T08:04:01.707Z,84.73
2023-01-29T08:05:05.179Z,84.79
2023-01-29T08:06:08.662Z,84.86
2023-01-29T08:07:45.954Z,84.71
2023-01-29T08:09:04.769Z,84.64
2023-01-29T08:10:08.082Z,84.55
2023-01-29T08:11:44.082Z,84.66
2023-01-29T08:12:47.440Z,84.59
2023-01-29T08:13:50.654Z,84.65
2023-01-29T08:15:25.974Z,84.46
2023-01-29T08:25:08.489Z,84.23
2023-01-29T08:26:13.071Z,84.11
2023-01-29T08:27:48.541Z,84.07
2023-01-29T08:28:51.755Z,83.95
2023-01-29T08:29:55.013Z,83.81
2023-01-29T08:31:31.959Z,83.86
2023-01-29T08:32:35.482Z,83.88
2023-01-29T08:33:45.149Z,83.93
2023-01-29T08:35:21.130Z,83.68
2023-01-29T08:36:24.422Z,83.73
2023-01-29T08:37:27.716Z,83.63
2023-01-29T08:39:03.060Z,83.62
2023-01-29T08:40:06.709Z,83.72
2023-01-29T08:41:10.297Z,83.64
2023-01-29T08:42:45.776Z,83.67
2023-01-29T08:43:51.762Z,83.78
2023-01-29T08:44:54.854Z,83.88
2023-01-29T08:46:30.425Z,83.72
2023-01-29T08:47:35.236Z,83.57
2023-01-29T08:48:38.833Z,83.62
2023-01-29T08:50:14.201Z,83.65
2023-01-29T08:51:17.965Z,83.61
2023-01-29T08:52:21.724Z,83.76
2023-01-29T08:53:57.402Z,83.38
2023-01-29T08:55:00.614Z,83.31
2023-01-29T08:56:04.371Z,83.22
2023-01-29T08:57:40.019Z,83.40
2023-01-29T08:58:43.354Z,83.58
2023-01-29T08:59:46.654Z,83.49
2023-01-29T09:00:18.288Z,83.56
2023-01-29T09:01:22.250Z,83.66
2023-01-29T09:02:25.826Z,83.71
2023-01-29T09:04:01.430Z,83.52
2023-01-29T09:05:04.874Z,83.60
2023-01-29T09:06:08.672Z,83.69
2023-01-29T09:07:44.067Z,83.59
2023-01-29T09:08:47.764Z,83.79
2023-01-29T09:09:51.191Z,83.65
2023-01-29T09:11:26.331Z,83.61
2023-01-29T09:12:29.740Z,83.69
2023-01-29T09:13:33.044Z,83.57
2023-01-29T09:15:08.363Z,83.72
2023-01-29T09:16:12.127Z,83.91
2023-01-29T09:17:15.748Z,84.01
2023-01-29T09:18:51.253Z,83.66
2023-01-29T09:19:54.633Z,83.20
2023-01-29T09:20:58.152Z,83.42
2023-01-29T09:22:33.511Z,83.61
2023-01-29T09:23:36.703Z,83.59
2023-01-29T09:24:40.165Z,83.47
2023-01-29T09:26:15.918Z,83.05
2023-01-29T09:27:19.424Z,83.35
2023-01-29T09:28:22.834Z,83.46
2023-01-29T09:29:58.223Z,83.14
2023-01-29T09:31:02.074Z,83.13
2023-01-29T09:32:07.072Z,83.34
2023-01-29T09:34:14.381Z,83.66
2023-01-29T09:35:17.948Z,83.53
2023-01-29T09:36:21.895Z,82.86
2023-01-29T09:37:57.304Z,83.15
2023-01-29T09:39:00.660Z,83.02
2023-01-29T09:40:03.983Z,83.11
2023-01-29T09:41:39.140Z,83.26
2023-01-29T09:42:42.697Z,83.17
2023-01-29T09:43:46.353Z,83.02
2023-01-29T09:45:22.831Z,83.07
2023-01-29T09:46:26.310Z,82.77
2023-01-29T09:47:29.791Z,82.90
2023-01-29T09:49:05.374Z,83.17
2023-01-29T09:50:08.698Z,82.85
2023-01-29T09:51:12.580Z,83.02
2023-01-29T09:52:48.057Z,82.90
2023-01-29T09:53:51.401Z,83.00
2023-01-29T09:54:54.866Z,82.97
2023-01-29T09:56:30.827Z,83.00
2023-01-29T09:57:34.255Z,83.00
2023-01-29T09:58:37.818Z,83.05
2023-01-29T10:00:17.630Z,82.75
2023-01-29T10:01:21.771Z,82.83
2023-01-29T10:02:25.920Z,82.63
2023-01-29T10:04:01.381Z,82.77
2023-01-29T10:05:04.920Z,82.80
2023-01-29T10:06:09.205Z,82.73
2023-01-29T10:07:44.881Z,82.74
2023-01-29T10:08:48.747Z,82.73
2023-01-29T10:09:52.330Z,82.75
2023-01-29T10:11:27.898Z,82.80
2023-01-29T10:12:31.353Z,82.80
2023-01-29T10:13:35.191Z,83.08
2023-01-29T10:15:11.175Z,82.73
2023-01-29T10:16:14.882Z,82.75
2023-01-29T10:17:18.929Z,82.42
2023-01-29T10:18:54.879Z,82.75
2023-01-29T10:19:58.430Z,82.79
2023-01-29T10:21:01.995Z,82.89
2023-01-29T10:22:37.629Z,82.59
2023-01-29T10:23:41.331Z,82.24
2023-01-29T10:24:44.865Z,82.49
2023-01-29T10:26:20.703Z,82.83
2023-01-29T10:27:24.689Z,82.75
2023-01-29T10:28:28.201Z,82.42
2023-01-29T10:30:04.960Z,82.57
2023-01-29T10:31:08.717Z,82.56
2023-01-29T10:32:13.723Z,82.50
2023-01-29T10:34:06.371Z,82.07
2023-01-29T10:35:09.941Z,82.26
2023-01-29T10:36:13.889Z,82.56
2023-01-29T10:37:49.699Z,82.38
2023-01-29T10:38:53.300Z,82.37
2023-01-29T10:39:56.869Z,82.31
2023-01-29T10:41:32.473Z,82.08
2023-01-29T10:42:35.905Z,82.32
2023-01-29T10:43:39.227Z,82.21
2023-01-29T10:45:15.772Z,81.58
2023-01-29T10:46:19.282Z,82.32
2023-01-29T10:47:23.163Z,82.15
2023-01-29T10:49:00.887Z,82.02
2023-01-29T10:50:04.507Z,81.43
2023-01-29T10:51:08.255Z,81.67
2023-01-29T10:52:43.976Z,81.23
2023-01-29T10:53:49.640Z,81.03
2023-01-29T10:54:53.305Z,80.89
2023-01-29T10:56:29.676Z,80.77
2023-01-29T10:57:33.178Z,81.11
2023-01-29T10:58:36.804Z,81.11
2023-01-29T11:00:18.402Z,80.91
2023-01-29T11:01:22.504Z,80.84
2023-01-29T11:02:26.720Z,81.16
2023-01-29T11:04:18.538Z,81.53
2023-01-29T11:05:22.919Z,81.14
2023-01-29T11:06:26.625Z,80.51
2023-01-29T11:08:02.397Z,80.88
2023-01-29T11:09:05.884Z,80.95
2023-01-29T11:10:09.450Z,81.06
2023-01-29T11:11:45.890Z,81.52
2023-01-29T11:12:49.522Z,81.53
2023-01-29T11:13:53.036Z,81.13
2023-01-29T11:15:28.732Z,80.90
2023-01-29T11:16:32.696Z,81.20
2023-01-29T11:17:36.477Z,81.27
2023-01-29T11:19:12.850Z,81.20
2023-01-29T11:20:16.706Z,81.19
2023-01-29T11:21:20.572Z,81.18
2023-01-29T11:22:56.183Z,80.84
2023-01-29T11:23:59.982Z,80.80
2023-01-29T11:25:03.586Z,80.88
2023-01-29T11:26:39.625Z,80.88
2023-01-29T11:27:43.247Z,81.01
2023-01-29T11:28:46.625Z,80.69
2023-01-29T11:30:23.517Z,80.50
2023-01-29T11:31:27.707Z,80.83
2023-01-29T11:32:31.806Z,80.84
2023-01-29T11:34:07.483Z,80.25
2023-01-29T11:35:11.051Z,80.89
2023-01-29T11:36:14.713Z,80.65
2023-01-29T11:37:52.814Z,81.01
2023-01-29T11:38:56.395Z,80.14
2023-01-29T11:39:59.827Z,80.81
2023-01-29T11:41:36.412Z,80.85
2023-01-29T11:42:40.220Z,80.85
2023-01-29T11:43:43.857Z,81.41
2023-01-29T11:45:19.340Z,81.00
2023-01-29T11:46:23.178Z,81.04
2023-01-29T11:47:26.685Z,80.63
2023-01-29T11:49:20.604Z,80.81
2023-01-29T11:50:24.958Z,81.13
2023-01-29T11:51:28.755Z,81.09
2023-01-29T11:53:04.701Z,80.77
2023-01-29T11:54:08.000Z,80.62
2023-01-29T11:55:11.824Z,80.89
2023-01-29T11:57:03.992Z,80.51
2023-01-29T11:58:07.678Z,81.15
2023-01-29T11:59:11.168Z,81.22
2023-01-29T12:00:18.291Z,80.52
2023-01-29T12:01:22.073Z,80.70
2023-01-29T12:02:25.600Z,81.02
2023-01-29T12:04:04.166Z,81.20
2023-01-29T12:05:07.849Z,81.23
2023-01-29T12:06:11.603Z,81.35
2023-01-29T12:07:47.526Z,81.07
2023-01-29T12:08:51.043Z,81.37
2023-01-29T12:09:57.617Z,81.42
2023-01-29T12:11:33.646Z,81.01
2023-01-29T12:12:37.253Z,80.90
2023-01-29T12:13:40.939Z,81.54
2023-01-29T12:15:16.430Z,80.99
2023-01-29T12:16:20.438Z,81.11
2023-01-29T12:17:24.534Z,81.47
2023-01-29T12:19:00.518Z,81.84
2023-01-29T12:20:03.950Z,82.36
2023-01-29T12:21:08.030Z,81.73
2023-01-29T12:22:44.890Z,81.37
2023-01-29T12:23:48.627Z,81.42
2023-01-29T12:24:52.145Z,81.41
2023-01-29T12:26:28.038Z,82.10
2023-01-29T12:27:31.831Z,82.10
2023-01-29T12:28:35.405Z,82.34
2023-01-29T12:30:11.082Z,82.24
2023-01-29T12:31:15.398Z,82.34
2023-01-29T12:32:19.193Z,81.91
2023-01-29T12:33:54.971Z,82.06
2023-01-29T12:34:58.313Z,82.32
2023-01-29T12:36:01.861Z,82.57
2023-01-29T12:37:40.826Z,82.42
2023-01-29T12:38:44.630Z,82.39
2023-01-29T12:39:48.311Z,82.45
2023-01-29T12:41:24.023Z,82.67
2023-01-29T12:42:27.598Z,82.59
2023-01-29T12:43:30.940Z,82.14
2023-01-29T12:45:06.897Z,82.57
2023-01-29T12:46:10.278Z,82.67
2023-01-29T12:47:16.113Z,82.61
2023-01-29T12:48:52.748Z,82.59
2023-01-29T12:49:56.242Z,82.66
2023-01-29T12:50:59.960Z,82.66
2023-01-29T12:52:35.855Z,82.94
2023-01-29T12:53:39.139Z,83.15
2023-01-29T12:54:42.586Z,83.25
2023-01-29T12:56:18.489Z,83.32
2023-01-29T12:57:21.960Z,83.77
2023-01-29T12:58:25.453Z,83.86
2023-01-29T13:00:00.976Z,83.76
2023-01-29T13:00:18.096Z,84.06
2023-01-29T13:01:22.261Z,84.13
2023-01-29T13:02:25.755Z,84.09
2023-01-29T13:04:01.765Z,84.20
2023-01-29T13:05:05.147Z,84.64
2023-01-29T13:06:08.684Z,84.76
2023-01-29T13:07:44.546Z,84.59
2023-01-29T13:08:48.227Z,84.89
2023-01-29T13:09:51.888Z,85.11
2023-01-29T13:11:28.610Z,85.35
2023-01-29T13:12:32.283Z,85.32
2023-01-29T13:13:35.849Z,85.67
2023-01-29T13:15:13.111Z,85.84
2023-01-29T13:16:16.804Z,85.91
2023-01-29T13:17:20.840Z,85.95
2023-01-29T13:18:56.553Z,86.04
2023-01-29T13:20:00.202Z,86.07
2023-01-29T13:21:04.208Z,86.03
2023-01-29T13:22:40.081Z,86.22
2023-01-29T13:23:43.500Z,86.36
2023-01-29T13:24:58.723Z,86.62
2023-01-29T13:26:39.199Z,86.61
2023-01-29T13:27:43.018Z,86.77
2023-01-29T13:28:46.451Z,86.82
2023-01-29T13:30:22.631Z,86.98
2023-01-29T13:31:26.376Z,86.90
2023-01-29T13:32:30.126Z,86.89
2023-01-29T13:34:08.038Z,86.67
2023-01-29T13:35:11.746Z,87.01
2023-01-29T13:36:15.548Z,87.23
2023-01-29T13:37:51.516Z,87.05
2023-01-29T13:38:54.994Z,86.97
2023-01-29T13:39:58.882Z,87.03
2023-01-29T13:41:34.387Z,87.26
2023-01-29T13:42:38.013Z,87.41
2023-01-29T13:43:41.771Z,87.40
2023-01-29T13:45:18.072Z,87.55
2023-01-29T13:46:22.344Z,87.47
2023-01-29T13:47:25.997Z,87.51
2023-01-29T13:49:01.645Z,87.44
2023-01-29T13:50:07.400Z,87.31
2023-01-29T13:51:10.996Z,87.38
2023-01-29T13:52:46.572Z,87.29
2023-01-29T13:53:49.798Z,87.24
2023-01-29T13:54:53.472Z,87.48
2023-01-29T13:56:29.847Z,87.65
2023-01-29T13:57:33.458Z,87.42
2023-01-29T13:58:37.298Z,87.51
2023-01-29T14:00:18.580Z,87.38
2023-01-29T14:01:22.252Z,87.40
2023-01-29T14:02:26.067Z,87.37
2023-01-29T14:04:11.107Z,87.35
2023-01-29T14:05:15.297Z,87.37
2023-01-29T14:06:18.779Z,87.43
2023-01-29T14:07:54.619Z,87.39
2023-01-29T14:08:58.011Z,87.27
2023-01-29T14:10:01.712Z,87.30
2023-01-29T14:11:38.934Z,87.29
2023-01-29T14:12:42.525Z,87.20
2023-01-29T14:13:45.969Z,87.40
2023-01-29T14:15:25.936Z,87.30
2023-01-29T14:16:29.849Z,86.72
2023-01-29T14:17:33.713Z,86.71
2023-01-29T14:19:09.367Z,86.74
2023-01-29T14:20:12.933Z,86.55
2023-01-29T14:21:32.208Z,86.54
2023-01-29T14:23:08.159Z,86.77
2023-01-29T14:24:11.564Z,86.76
2023-01-29T14:25:15.607Z,86.71
2023-01-29T14:26:51.942Z,86.52
2023-01-29T14:27:55.383Z,86.53
2023-01-29T14:28:59.158Z,86.33
2023-01-29T14:30:48.563Z,86.27
2023-01-29T14:31:52.889Z,86.19
2023-01-29T14:32:56.663Z,86.45
2023-01-29T14:34:35.521Z,86.23
2023-01-29T14:35:39.097Z,86.14
2023-01-29T14:36:42.645Z,86.08
2023-01-29T14:38:18.383Z,86.32
2023-01-29T14:39:21.829Z,85.93
2023-01-29T14:40:25.291Z,85.82
2023-01-29T14:42:00.920Z,86.26
2023-01-29T14:43:04.368Z,86.17
2023-01-29T14:44:08.025Z,86.03
2023-01-29T14:45:43.686Z,86.08
2023-01-29T14:46:47.795Z,86.07
2023-01-29T14:47:51.396Z,86.10
2023-01-29T14:49:26.951Z,86.16
2023-01-29T14:50:30.629Z,85.95
2023-01-29T14:51:34.270Z,86.18
2023-01-29T14:53:10.081Z,86.14
2023-01-29T14:54:13.497Z,85.74
2023-01-29T14:55:17.691Z,85.78
2023-01-29T14:56:53.601Z,85.92
2023-01-29T14:57:57.254Z,85.81
2023-01-29T14:59:02.828Z,85.86
2023-01-29T15:00:18.287Z,85.86
2023-01-29T15:01:22.236Z,85.77
2023-01-29T15:02:26.387Z,85.60
2023-01-29T15:04:11.999Z,85.55
2023-01-29T15:05:16.776Z,85.63
2023-01-29T15:06:20.428Z,85.48
2023-01-29T15:07:56.457Z,85.60
2023-01-29T15:09:00.266Z,85.61
2023-01-29T15:10:28.001Z,85.63
2023-01-29T15:12:03.481Z,85.52
2023-01-29T15:13:06.699Z,85.42
2023-01-29T15:14:10.248Z,85.50
2023-01-29T15:15:46.028Z,85.26
2023-01-29T15:16:50.373Z,85.17
2023-01-29T15:17:54.057Z,85.19
2023-01-29T15:19:29.854Z,85.28
2023-01-29T15:20:34.145Z,85.25
2023-01-29T15:21:37.991Z,85.21
2023-01-29T15:23:13.497Z,85.24
2023-01-29T15:24:17.137Z,85.23
2023-01-29T15:25:21.004Z,85.18
2023-01-29T15:26:57.194Z,85.07
2023-01-29T15:28:00.589Z,84.99
2023-01-29T15:29:10.086Z,84.76
2023-01-29T15:30:46.069Z,84.86
2023-01-29T15:31:52.884Z,84.70
2023-01-29T15:32:56.513Z,84.70
2023-01-29T15:34:32.413Z,84.37
2023-01-29T15:35:36.374Z,84.24
2023-01-29T15:36:53.473Z,84.57
2023-01-29T15:38:29.032Z,84.54
2023-01-29T15:39:32.468Z,84.47
2023-01-29T15:40:38.561Z,84.40
2023-01-29T15:42:14.198Z,84.27
2023-01-29T15:43:17.975Z,84.17
2023-01-29T15:44:21.267Z,84.20
2023-01-29T15:45:57.570Z,84.22
2023-01-29T15:47:01.068Z,84.40
2023-01-29T15:48:04.913Z,84.28
2023-01-29T15:49:40.730Z,84.48
2023-01-29T15:50:44.394Z,84.11
2023-01-29T15:51:47.936Z,84.38
2023-01-29T15:53:23.664Z,84.38
2023-01-29T15:54:27.112Z,84.33
2023-01-29T15:55:30.616Z,84.28
2023-01-29T15:57:06.862Z,84.35
2023-01-29T15:58:10.275Z,83.94
2023-01-29T15:59:15.754Z,84.24
2023-01-29T16:00:17.663Z,84.06
2023-01-29T16:01:21.127Z,84.21
2023-01-29T16:02:25.228Z,84.24
2023-01-29T16:04:04.169Z,84.14
2023-01-29T16:05:07.647Z,84.08